sensor_id;sensor_type;location;lat;lon;timestamp;P1;durP1;ratioP1;P2;durP2;ratioP2
9559;SDS011;4818;50.860;4.648;2022-10-13T00:00:38;17.35;;;8.95;;
9559;SDS011;4818;50.860;4.648;2022-10-13T00:03:05;15.98;;;7.72;;
9559;SDS011;4818;50.860;4.648;2022-10-13T00:05:31;19.13;;;8.23;;
9559;SDS011;4818;50.860;4.648;2022-10-13T00:07:57;25.35;;;8.70;;
9559;SDS011;4818;50.860;4.648;2022-10-13T00:10:24;21.77;;;8.48;;
9559;SDS011;4818;50.860;4.648;2022-10-13T00:12:52;24.35;;;10.32;;
9559;SDS011;4818;50.860;4.648;2022-10-13T00:15:18;21.42;;;9.73;;
9559;SDS011;4818;50.860;4.648;2022-10-13T00:17:45;24.05;;;9.10;;
9559;SDS011;4818;50.860;4.648;2022-10-13T00:20:11;16.50;;;7.25;;
9559;SDS011;4818;50.860;4.648;2022-10-13T00:22:37;19.73;;;8.50;;
9559;SDS011;4818;50.860;4.648;2022-10-13T00:25:03;23.85;;;8.65;;
9559;SDS011;4818;50.860;4.648;2022-10-13T00:27:30;20.63;;;7.80;;
9559;SDS011;4818;50.860;4.648;2022-10-13T00:29:56;22.50;;;8.25;;
9559;SDS011;4818;50.860;4.648;2022-10-13T00:32:22;16.73;;;8.00;;
9559;SDS011;4818;50.860;4.648;2022-10-13T00:34:49;23.95;;;8.88;;
9559;SDS011;4818;50.860;4.648;2022-10-13T00:37:15;19.45;;;8.70;;
9559;SDS011;4818;50.860;4.648;2022-10-13T00:39:41;18.30;;;7.85;;
9559;SDS011;4818;50.860;4.648;2022-10-13T00:42:11;24.10;;;8.68;;
9559;SDS011;4818;50.860;4.648;2022-10-13T00:47:03;21.13;;;8.13;;
9559;SDS011;4818;50.860;4.648;2022-10-13T00:49:30;15.80;;;7.47;;
9559;SDS011;4818;50.860;4.648;2022-10-13T00:51:56;19.83;;;8.13;;
9559;SDS011;4818;50.860;4.648;2022-10-13T00:54:22;14.65;;;7.18;;
9559;SDS011;4818;50.860;4.648;2022-10-13T00:56:49;12.45;;;6.53;;
9559;SDS011;4818;50.860;4.648;2022-10-13T00:59:20;20.15;;;7.30;;
9559;SDS011;4818;50.860;4.648;2022-10-13T01:01:49;16.95;;;6.88;;
9559;SDS011;4818;50.860;4.648;2022-10-13T01:04:15;14.13;;;7.75;;
9559;SDS011;4818;50.860;4.648;2022-10-13T01:06:42;18.23;;;7.03;;
9559;SDS011;4818;50.860;4.648;2022-10-13T01:09:08;16.77;;;6.82;;
9559;SDS011;4818;50.860;4.648;2022-10-13T01:14:14;16.73;;;7.50;;
9559;SDS011;4818;50.860;4.648;2022-10-13T01:19:24;12.80;;;6.68;;
9559;SDS011;4818;50.860;4.648;2022-10-13T01:32:18;15.15;;;7.57;;
9559;SDS011;4818;50.860;4.648;2022-10-13T01:37:25;15.43;;;7.85;;
9559;SDS011;4818;50.860;4.648;2022-10-13T01:40:03;16.88;;;7.35;;
9559;SDS011;4818;50.860;4.648;2022-10-13T01:42:43;15.32;;;6.75;;
9559;SDS011;4818;50.860;4.648;2022-10-13T01:45:11;22.38;;;9.52;;
9559;SDS011;4818;50.860;4.648;2022-10-13T01:47:40;17.27;;;7.10;;
9559;SDS011;4818;50.860;4.648;2022-10-13T01:50:08;15.93;;;7.50;;
9559;SDS011;4818;50.860;4.648;2022-10-13T01:52:35;17.65;;;7.78;;
9559;SDS011;4818;50.860;4.648;2022-10-13T01:55:10;15.95;;;6.75;;
9559;SDS011;4818;50.860;4.648;2022-10-13T01:57:41;15.93;;;6.95;;
9559;SDS011;4818;50.860;4.648;2022-10-13T02:00:17;15.77;;;7.35;;
9559;SDS011;4818;50.860;4.648;2022-10-13T02:05:24;14.23;;;6.80;;
9559;SDS011;4818;50.860;4.648;2022-10-13T02:08:06;14.18;;;6.78;;
9559;SDS011;4818;50.860;4.648;2022-10-13T02:13:04;23.88;;;7.15;;
9559;SDS011;4818;50.860;4.648;2022-10-13T02:15:50;14.13;;;6.18;;
9559;SDS011;4818;50.860;4.648;2022-10-13T02:18:18;17.33;;;6.75;;
9559;SDS011;4818;50.860;4.648;2022-10-13T02:20:46;19.13;;;7.47;;
9559;SDS011;4818;50.860;4.648;2022-10-13T02:23:14;14.82;;;6.47;;
9559;SDS011;4818;50.860;4.648;2022-10-13T02:25:40;11.48;;;6.10;;
9559;SDS011;4818;50.860;4.648;2022-10-13T02:28:07;13.73;;;6.60;;
9559;SDS011;4818;50.860;4.648;2022-10-13T02:30:37;14.13;;;6.18;;
9559;SDS011;4818;50.860;4.648;2022-10-13T02:33:04;11.67;;;5.47;;
9559;SDS011;4818;50.860;4.648;2022-10-13T02:35:30;17.10;;;6.43;;
9559;SDS011;4818;50.860;4.648;2022-10-13T02:37:59;17.45;;;6.75;;
9559;SDS011;4818;50.860;4.648;2022-10-13T02:40:25;11.18;;;6.63;;
9559;SDS011;4818;50.860;4.648;2022-10-13T02:42:52;18.05;;;6.95;;
9559;SDS011;4818;50.860;4.648;2022-10-13T02:45:18;13.52;;;6.85;;
9559;SDS011;4818;50.860;4.648;2022-10-13T02:47:45;15.32;;;6.22;;
9559;SDS011;4818;50.860;4.648;2022-10-13T02:50:11;14.95;;;6.22;;
9559;SDS011;4818;50.860;4.648;2022-10-13T02:52:37;11.93;;;6.20;;
9559;SDS011;4818;50.860;4.648;2022-10-13T02:55:04;15.85;;;7.22;;
9559;SDS011;4818;50.860;4.648;2022-10-13T02:57:30;15.40;;;6.50;;
9559;SDS011;4818;50.860;4.648;2022-10-13T02:59:56;19.52;;;7.22;;
9559;SDS011;4818;50.860;4.648;2022-10-13T03:02:22;19.45;;;7.53;;
9559;SDS011;4818;50.860;4.648;2022-10-13T03:04:52;15.60;;;6.88;;
9559;SDS011;4818;50.860;4.648;2022-10-13T03:07:28;14.70;;;6.47;;
9559;SDS011;4818;50.860;4.648;2022-10-13T03:09:57;11.13;;;5.63;;
9559;SDS011;4818;50.860;4.648;2022-10-13T03:12:26;17.45;;;6.45;;
9559;SDS011;4818;50.860;4.648;2022-10-13T03:14:52;16.25;;;6.75;;
9559;SDS011;4818;50.860;4.648;2022-10-13T03:17:18;13.43;;;5.30;;
9559;SDS011;4818;50.860;4.648;2022-10-13T03:19:44;14.05;;;7.13;;
9559;SDS011;4818;50.860;4.648;2022-10-13T03:22:11;17.40;;;8.10;;
9559;SDS011;4818;50.860;4.648;2022-10-13T03:24:39;16.67;;;7.55;;
9559;SDS011;4818;50.860;4.648;2022-10-13T03:27:05;16.45;;;6.55;;
9559;SDS011;4818;50.860;4.648;2022-10-13T03:29:32;14.88;;;6.13;;
9559;SDS011;4818;50.860;4.648;2022-10-13T03:31:58;13.93;;;6.07;;
9559;SDS011;4818;50.860;4.648;2022-10-13T03:34:24;15.50;;;6.03;;
9559;SDS011;4818;50.860;4.648;2022-10-13T03:36:50;18.08;;;7.40;;
9559;SDS011;4818;50.860;4.648;2022-10-13T03:39:17;15.77;;;5.78;;
9559;SDS011;4818;50.860;4.648;2022-10-13T03:41:43;13.27;;;6.90;;
9559;SDS011;4818;50.860;4.648;2022-10-13T03:44:10;14.60;;;6.72;;
9559;SDS011;4818;50.860;4.648;2022-10-13T03:46:37;15.50;;;6.35;;
9559;SDS011;4818;50.860;4.648;2022-10-13T03:49:04;16.15;;;6.93;;
9559;SDS011;4818;50.860;4.648;2022-10-13T03:51:30;15.18;;;6.38;;
9559;SDS011;4818;50.860;4.648;2022-10-13T03:53:56;11.88;;;6.60;;
9559;SDS011;4818;50.860;4.648;2022-10-13T03:56:25;20.38;;;7.95;;
9559;SDS011;4818;50.860;4.648;2022-10-13T03:58:52;16.13;;;7.43;;
9559;SDS011;4818;50.860;4.648;2022-10-13T04:01:23;17.98;;;7.82;;
9559;SDS011;4818;50.860;4.648;2022-10-13T04:03:51;15.75;;;7.53;;
9559;SDS011;4818;50.860;4.648;2022-10-13T04:06:18;19.73;;;9.07;;
9559;SDS011;4818;50.860;4.648;2022-10-13T04:08:45;18.17;;;8.95;;
9559;SDS011;4818;50.860;4.648;2022-10-13T04:11:12;25.65;;;9.70;;
9559;SDS011;4818;50.860;4.648;2022-10-13T04:13:39;16.33;;;9.15;;
9559;SDS011;4818;50.860;4.648;2022-10-13T04:16:07;20.55;;;9.27;;
9559;SDS011;4818;50.860;4.648;2022-10-13T04:18:33;21.73;;;9.63;;
9559;SDS011;4818;50.860;4.648;2022-10-13T04:21:00;19.48;;;9.35;;
9559;SDS011;4818;50.860;4.648;2022-10-13T04:23:26;15.90;;;8.10;;
9559;SDS011;4818;50.860;4.648;2022-10-13T04:25:52;25.77;;;9.73;;
9559;SDS011;4818;50.860;4.648;2022-10-13T04:28:18;19.50;;;8.93;;
9559;SDS011;4818;50.860;4.648;2022-10-13T04:30:45;17.55;;;7.88;;
9559;SDS011;4818;50.860;4.648;2022-10-13T04:33:11;27.75;;;10.38;;
9559;SDS011;4818;50.860;4.648;2022-10-13T04:35:40;19.30;;;8.77;;
9559;SDS011;4818;50.860;4.648;2022-10-13T04:38:06;23.88;;;9.07;;
9559;SDS011;4818;50.860;4.648;2022-10-13T04:40:33;26.42;;;8.88;;
9559;SDS011;4818;50.860;4.648;2022-10-13T04:43:00;21.58;;;8.68;;
9559;SDS011;4818;50.860;4.648;2022-10-13T04:45:26;14.77;;;8.07;;
9559;SDS011;4818;50.860;4.648;2022-10-13T04:47:53;16.27;;;8.48;;
9559;SDS011;4818;50.860;4.648;2022-10-13T04:50:19;18.73;;;8.73;;
9559;SDS011;4818;50.860;4.648;2022-10-13T04:52:45;25.40;;;8.98;;
9559;SDS011;4818;50.860;4.648;2022-10-13T04:55:11;16.42;;;8.60;;
9559;SDS011;4818;50.860;4.648;2022-10-13T04:57:38;21.58;;;8.60;;
9559;SDS011;4818;50.860;4.648;2022-10-13T05:00:04;17.42;;;8.20;;
9559;SDS011;4818;50.860;4.648;2022-10-13T05:02:33;17.05;;;8.00;;
9559;SDS011;4818;50.860;4.648;2022-10-13T05:04:59;19.38;;;9.35;;
9559;SDS011;4818;50.860;4.648;2022-10-13T05:07:25;20.35;;;9.27;;
9559;SDS011;4818;50.860;4.648;2022-10-13T05:09:52;21.13;;;8.48;;
9559;SDS011;4818;50.860;4.648;2022-10-13T05:12:18;14.35;;;8.07;;
9559;SDS011;4818;50.860;4.648;2022-10-13T05:14:44;16.27;;;7.97;;
9559;SDS011;4818;50.860;4.648;2022-10-13T05:17:10;21.40;;;9.18;;
9559;SDS011;4818;50.860;4.648;2022-10-13T05:19:36;21.02;;;8.57;;
9559;SDS011;4818;50.860;4.648;2022-10-13T05:22:03;22.45;;;9.25;;
9559;SDS011;4818;50.860;4.648;2022-10-13T05:24:29;20.02;;;8.75;;
9559;SDS011;4818;50.860;4.648;2022-10-13T05:27:04;19.63;;;9.02;;
9559;SDS011;4818;50.860;4.648;2022-10-13T05:29:31;16.50;;;8.35;;
9559;SDS011;4818;50.860;4.648;2022-10-13T05:31:57;19.98;;;7.45;;
9559;SDS011;4818;50.860;4.648;2022-10-13T05:34:23;17.98;;;8.13;;
9559;SDS011;4818;50.860;4.648;2022-10-13T05:36:49;19.38;;;8.77;;
9559;SDS011;4818;50.860;4.648;2022-10-13T05:39:16;13.02;;;7.30;;
9559;SDS011;4818;50.860;4.648;2022-10-13T05:41:42;17.27;;;8.13;;
9559;SDS011;4818;50.860;4.648;2022-10-13T05:44:08;16.08;;;7.90;;
9559;SDS011;4818;50.860;4.648;2022-10-13T05:46:34;17.10;;;6.63;;
9559;SDS011;4818;50.860;4.648;2022-10-13T05:49:01;14.45;;;8.15;;
9559;SDS011;4818;50.860;4.648;2022-10-13T05:51:31;18.92;;;8.82;;
9559;SDS011;4818;50.860;4.648;2022-10-13T05:54:00;16.90;;;8.15;;
9559;SDS011;4818;50.860;4.648;2022-10-13T05:56:29;18.88;;;7.88;;
9559;SDS011;4818;50.860;4.648;2022-10-13T05:58:58;20.83;;;8.95;;
9559;SDS011;4818;50.860;4.648;2022-10-13T06:01:25;11.73;;;6.70;;
9559;SDS011;4818;50.860;4.648;2022-10-13T06:03:53;12.93;;;7.30;;
9559;SDS011;4818;50.860;4.648;2022-10-13T06:06:21;27.25;;;8.35;;
9559;SDS011;4818;50.860;4.648;2022-10-13T06:08:50;16.20;;;7.85;;
9559;SDS011;4818;50.860;4.648;2022-10-13T06:11:20;15.02;;;7.07;;
9559;SDS011;4818;50.860;4.648;2022-10-13T06:13:46;20.75;;;8.00;;
9559;SDS011;4818;50.860;4.648;2022-10-13T06:16:12;11.95;;;7.65;;
9559;SDS011;4818;50.860;4.648;2022-10-13T06:18:38;16.40;;;8.15;;
9559;SDS011;4818;50.860;4.648;2022-10-13T06:21:04;13.38;;;6.93;;
9559;SDS011;4818;50.860;4.648;2022-10-13T06:23:31;20.67;;;8.00;;
9559;SDS011;4818;50.860;4.648;2022-10-13T06:26:00;18.88;;;7.68;;
9559;SDS011;4818;50.860;4.648;2022-10-13T06:28:32;18.73;;;8.75;;
9559;SDS011;4818;50.860;4.648;2022-10-13T06:30:59;22.42;;;9.48;;
9559;SDS011;4818;50.860;4.648;2022-10-13T06:33:25;17.80;;;7.88;;
9559;SDS011;4818;50.860;4.648;2022-10-13T06:35:51;14.50;;;9.50;;
9559;SDS011;4818;50.860;4.648;2022-10-13T06:38:18;21.42;;;12.13;;
9559;SDS011;4818;50.860;4.648;2022-10-13T06:40:44;33.20;;;15.32;;
9559;SDS011;4818;50.860;4.648;2022-10-13T06:43:10;31.77;;;15.52;;
9559;SDS011;4818;50.860;4.648;2022-10-13T06:45:37;21.35;;;11.98;;
9559;SDS011;4818;50.860;4.648;2022-10-13T06:48:03;22.85;;;11.90;;
9559;SDS011;4818;50.860;4.648;2022-10-13T06:50:29;25.02;;;12.15;;
9559;SDS011;4818;50.860;4.648;2022-10-13T06:52:56;18.77;;;9.32;;
9559;SDS011;4818;50.860;4.648;2022-10-13T06:55:22;17.45;;;8.02;;
9559;SDS011;4818;50.860;4.648;2022-10-13T06:57:48;18.33;;;7.43;;
9559;SDS011;4818;50.860;4.648;2022-10-13T07:00:15;24.42;;;10.15;;
9559;SDS011;4818;50.860;4.648;2022-10-13T07:02:41;20.13;;;8.30;;
9559;SDS011;4818;50.860;4.648;2022-10-13T07:05:07;18.63;;;8.80;;
9559;SDS011;4818;50.860;4.648;2022-10-13T07:07:33;20.60;;;11.23;;
9559;SDS011;4818;50.860;4.648;2022-10-13T07:09:59;26.20;;;10.32;;
9559;SDS011;4818;50.860;4.648;2022-10-13T07:12:26;20.00;;;8.65;;
9559;SDS011;4818;50.860;4.648;2022-10-13T07:14:52;15.60;;;8.38;;
9559;SDS011;4818;50.860;4.648;2022-10-13T07:17:18;19.20;;;8.68;;
9559;SDS011;4818;50.860;4.648;2022-10-13T07:19:44;20.45;;;8.32;;
9559;SDS011;4818;50.860;4.648;2022-10-13T07:22:12;24.10;;;8.88;;
9559;SDS011;4818;50.860;4.648;2022-10-13T07:24:39;16.65;;;9.65;;
9559;SDS011;4818;50.860;4.648;2022-10-13T07:27:06;17.85;;;9.23;;
9559;SDS011;4818;50.860;4.648;2022-10-13T07:29:32;19.85;;;9.98;;
9559;SDS011;4818;50.860;4.648;2022-10-13T07:31:58;18.90;;;8.40;;
9559;SDS011;4818;50.860;4.648;2022-10-13T07:34:24;27.17;;;8.40;;
9559;SDS011;4818;50.860;4.648;2022-10-13T07:36:50;22.77;;;9.27;;
9559;SDS011;4818;50.860;4.648;2022-10-13T07:39:16;20.38;;;8.13;;
9559;SDS011;4818;50.860;4.648;2022-10-13T07:41:43;18.20;;;7.97;;
9559;SDS011;4818;50.860;4.648;2022-10-13T07:44:11;22.20;;;7.82;;
9559;SDS011;4818;50.860;4.648;2022-10-13T07:46:41;17.40;;;8.55;;
9559;SDS011;4818;50.860;4.648;2022-10-13T07:49:07;19.88;;;8.95;;
9559;SDS011;4818;50.860;4.648;2022-10-13T07:51:34;20.77;;;8.48;;
9559;SDS011;4818;50.860;4.648;2022-10-13T07:54:00;19.92;;;8.77;;
9559;SDS011;4818;50.860;4.648;2022-10-13T07:56:26;13.70;;;7.47;;
9559;SDS011;4818;50.860;4.648;2022-10-13T07:58:52;22.48;;;8.45;;
9559;SDS011;4818;50.860;4.648;2022-10-13T08:01:19;16.77;;;8.10;;
9559;SDS011;4818;50.860;4.648;2022-10-13T08:03:45;23.50;;;9.43;;
9559;SDS011;4818;50.860;4.648;2022-10-13T08:06:11;18.45;;;8.73;;
9559;SDS011;4818;50.860;4.648;2022-10-13T08:08:38;21.40;;;8.25;;
9559;SDS011;4818;50.860;4.648;2022-10-13T08:11:05;20.10;;;8.63;;
9559;SDS011;4818;50.860;4.648;2022-10-13T08:13:32;23.98;;;9.13;;
9559;SDS011;4818;50.860;4.648;2022-10-13T08:15:59;16.67;;;8.40;;
9559;SDS011;4818;50.860;4.648;2022-10-13T08:18:25;14.48;;;7.57;;
9559;SDS011;4818;50.860;4.648;2022-10-13T08:20:51;22.63;;;8.68;;
9559;SDS011;4818;50.860;4.648;2022-10-13T08:23:18;12.00;;;7.13;;
9559;SDS011;4818;50.860;4.648;2022-10-13T08:25:44;18.25;;;7.97;;
9559;SDS011;4818;50.860;4.648;2022-10-13T08:30:42;15.57;;;6.85;;
9559;SDS011;4818;50.860;4.648;2022-10-13T08:33:09;18.17;;;7.30;;
9559;SDS011;4818;50.860;4.648;2022-10-13T08:35:37;13.18;;;7.30;;
9559;SDS011;4818;50.860;4.648;2022-10-13T08:38:13;15.95;;;7.82;;
9559;SDS011;4818;50.860;4.648;2022-10-13T08:40:39;16.45;;;7.35;;
9559;SDS011;4818;50.860;4.648;2022-10-13T08:43:11;16.00;;;7.55;;
9559;SDS011;4818;50.860;4.648;2022-10-13T08:45:42;29.08;;;8.75;;
9559;SDS011;4818;50.860;4.648;2022-10-13T08:48:16;13.55;;;6.85;;
9559;SDS011;4818;50.860;4.648;2022-10-13T08:50:44;12.55;;;6.95;;
9559;SDS011;4818;50.860;4.648;2022-10-13T08:53:30;17.45;;;7.88;;
9559;SDS011;4818;50.860;4.648;2022-10-13T08:58:28;17.65;;;7.18;;
9559;SDS011;4818;50.860;4.648;2022-10-13T09:00:57;15.77;;;7.90;;
9559;SDS011;4818;50.860;4.648;2022-10-13T09:03:28;13.82;;;6.82;;
9559;SDS011;4818;50.860;4.648;2022-10-13T09:06:10;19.73;;;7.28;;
9559;SDS011;4818;50.860;4.648;2022-10-13T09:08:50;15.73;;;7.32;;
9559;SDS011;4818;50.860;4.648;2022-10-13T09:11:17;19.23;;;6.80;;
9559;SDS011;4818;50.860;4.648;2022-10-13T09:13:43;14.55;;;6.70;;
9559;SDS011;4818;50.860;4.648;2022-10-13T09:16:10;15.10;;;5.45;;
9559;SDS011;4818;50.860;4.648;2022-10-13T09:18:36;13.20;;;5.95;;
9559;SDS011;4818;50.860;4.648;2022-10-13T09:21:10;11.98;;;6.05;;
9559;SDS011;4818;50.860;4.648;2022-10-13T09:23:36;10.63;;;5.65;;
9559;SDS011;4818;50.860;4.648;2022-10-13T09:26:06;14.23;;;7.13;;
9559;SDS011;4818;50.860;4.648;2022-10-13T09:28:33;15.65;;;6.47;;
9559;SDS011;4818;50.860;4.648;2022-10-13T09:31:04;11.52;;;6.15;;
9559;SDS011;4818;50.860;4.648;2022-10-13T09:33:35;10.55;;;6.25;;
9559;SDS011;4818;50.860;4.648;2022-10-13T09:38:28;13.18;;;7.25;;
9559;SDS011;4818;50.860;4.648;2022-10-13T09:43:28;9.50;;;5.55;;
9559;SDS011;4818;50.860;4.648;2022-10-13T09:45:57;20.02;;;7.07;;
9559;SDS011;4818;50.860;4.648;2022-10-13T09:48:28;15.07;;;6.25;;
9559;SDS011;4818;50.860;4.648;2022-10-13T09:50:56;8.98;;;5.75;;
9559;SDS011;4818;50.860;4.648;2022-10-13T09:58:39;13.10;;;6.80;;
9559;SDS011;4818;50.860;4.648;2022-10-13T10:01:14;11.65;;;6.38;;
9559;SDS011;4818;50.860;4.648;2022-10-13T10:03:43;12.30;;;6.53;;
9559;SDS011;4818;50.860;4.648;2022-10-13T10:06:10;12.68;;;6.30;;
9559;SDS011;4818;50.860;4.648;2022-10-13T10:11:56;13.95;;;6.80;;
9559;SDS011;4818;50.860;4.648;2022-10-13T10:13:57;10.68;;;5.93;;
9559;SDS011;4818;50.860;4.648;2022-10-13T10:19:00;9.50;;;5.53;;
9559;SDS011;4818;50.860;4.648;2022-10-13T10:26:37;10.57;;;5.90;;
9559;SDS011;4818;50.860;4.648;2022-10-13T10:42:16;11.18;;;6.43;;
9559;SDS011;4818;50.860;4.648;2022-10-13T10:44:45;12.48;;;5.82;;
9559;SDS011;4818;50.860;4.648;2022-10-13T10:47:20;10.20;;;6.65;;
9559;SDS011;4818;50.860;4.648;2022-10-13T10:49:50;17.40;;;5.50;;
9559;SDS011;4818;50.860;4.648;2022-10-13T10:52:38;14.45;;;6.70;;
9559;SDS011;4818;50.860;4.648;2022-10-13T10:57:47;10.65;;;5.93;;
9559;SDS011;4818;50.860;4.648;2022-10-13T11:00:16;11.80;;;5.97;;
9559;SDS011;4818;50.860;4.648;2022-10-13T11:02:51;16.75;;;7.28;;
9559;SDS011;4818;50.860;4.648;2022-10-13T11:05:51;13.40;;;7.97;;
9559;SDS011;4818;50.860;4.648;2022-10-13T11:30:00;19.25;;;7.90;;
9559;SDS011;4818;50.860;4.648;2022-10-13T11:45:05;15.70;;;9.20;;
9559;SDS011;4818;50.860;4.648;2022-10-13T11:50:31;20.90;;;10.25;;
9559;SDS011;4818;50.860;4.648;2022-10-13T11:53:18;19.52;;;10.35;;
9559;SDS011;4818;50.860;4.648;2022-10-13T11:55:50;19.30;;;11.90;;
9559;SDS011;4818;50.860;4.648;2022-10-13T11:58:24;25.92;;;11.10;;
9559;SDS011;4818;50.860;4.648;2022-10-13T12:00:58;19.98;;;11.27;;
9559;SDS011;4818;50.860;4.648;2022-10-13T12:03:29;27.38;;;11.88;;
9559;SDS011;4818;50.860;4.648;2022-10-13T12:05:59;22.63;;;11.38;;
9559;SDS011;4818;50.860;4.648;2022-10-13T12:08:27;22.10;;;12.25;;
9559;SDS011;4818;50.860;4.648;2022-10-13T12:10:54;19.90;;;11.13;;
9559;SDS011;4818;50.860;4.648;2022-10-13T12:13:23;27.02;;;12.50;;
9559;SDS011;4818;50.860;4.648;2022-10-13T12:16:00;23.45;;;11.70;;
9559;SDS011;4818;50.860;4.648;2022-10-13T12:18:32;22.80;;;11.52;;
9559;SDS011;4818;50.860;4.648;2022-10-13T12:21:00;22.55;;;11.57;;
9559;SDS011;4818;50.860;4.648;2022-10-13T12:23:27;20.38;;;10.13;;
9559;SDS011;4818;50.860;4.648;2022-10-13T12:25:53;16.27;;;9.25;;
9559;SDS011;4818;50.860;4.648;2022-10-13T12:28:25;20.58;;;11.00;;
9559;SDS011;4818;50.860;4.648;2022-10-13T12:30:53;26.98;;;11.30;;
9559;SDS011;4818;50.860;4.648;2022-10-13T12:33:30;26.10;;;11.80;;
9559;SDS011;4818;50.860;4.648;2022-10-13T12:38:26;26.02;;;11.38;;
9559;SDS011;4818;50.860;4.648;2022-10-13T12:40:52;21.98;;;11.18;;
9559;SDS011;4818;50.860;4.648;2022-10-13T12:43:21;20.38;;;10.25;;
9559;SDS011;4818;50.860;4.648;2022-10-13T12:45:49;16.02;;;8.57;;
9559;SDS011;4818;50.860;4.648;2022-10-13T12:48:33;22.17;;;10.55;;
9559;SDS011;4818;50.860;4.648;2022-10-13T12:51:16;17.25;;;10.23;;
9559;SDS011;4818;50.860;4.648;2022-10-13T12:53:43;23.10;;;9.65;;
9559;SDS011;4818;50.860;4.648;2022-10-13T12:56:43;19.75;;;9.77;;
9559;SDS011;4818;50.860;4.648;2022-10-13T12:59:02;17.90;;;9.88;;
9559;SDS011;4818;50.860;4.648;2022-10-13T13:01:30;20.77;;;10.70;;
9559;SDS011;4818;50.860;4.648;2022-10-13T13:04:01;18.58;;;10.18;;
9559;SDS011;4818;50.860;4.648;2022-10-13T13:06:31;18.38;;;10.48;;
9559;SDS011;4818;50.860;4.648;2022-10-13T13:12:03;17.83;;;10.13;;
9559;SDS011;4818;50.860;4.648;2022-10-13T13:14:33;16.63;;;9.52;;
9559;SDS011;4818;50.860;4.648;2022-10-13T13:17:13;18.88;;;8.43;;
9559;SDS011;4818;50.860;4.648;2022-10-13T13:19:43;13.35;;;8.32;;
9559;SDS011;4818;50.860;4.648;2022-10-13T13:22:10;15.50;;;9.20;;
9559;SDS011;4818;50.860;4.648;2022-10-13T13:24:37;16.25;;;8.30;;
9559;SDS011;4818;50.860;4.648;2022-10-13T13:29:38;12.13;;;6.57;;
9559;SDS011;4818;50.860;4.648;2022-10-13T13:32:04;18.83;;;7.32;;
9559;SDS011;4818;50.860;4.648;2022-10-13T13:34:30;11.18;;;6.95;;
9559;SDS011;4818;50.860;4.648;2022-10-13T13:36:57;12.90;;;7.57;;
9559;SDS011;4818;50.860;4.648;2022-10-13T13:39:25;14.63;;;7.20;;
9559;SDS011;4818;50.860;4.648;2022-10-13T13:41:52;16.73;;;7.88;;
9559;SDS011;4818;50.860;4.648;2022-10-13T13:44:18;17.67;;;7.80;;
9559;SDS011;4818;50.860;4.648;2022-10-13T13:46:44;14.13;;;7.30;;
9559;SDS011;4818;50.860;4.648;2022-10-13T13:49:10;15.55;;;7.03;;
9559;SDS011;4818;50.860;4.648;2022-10-13T13:51:36;9.30;;;5.45;;
9559;SDS011;4818;50.860;4.648;2022-10-13T13:54:03;12.00;;;5.97;;
9559;SDS011;4818;50.860;4.648;2022-10-13T13:56:30;14.43;;;7.25;;
9559;SDS011;4818;50.860;4.648;2022-10-13T13:58:59;13.50;;;7.38;;
9559;SDS011;4818;50.860;4.648;2022-10-13T14:01:26;16.00;;;8.32;;
9559;SDS011;4818;50.860;4.648;2022-10-13T14:03:52;15.45;;;8.10;;
9559;SDS011;4818;50.860;4.648;2022-10-13T14:06:19;14.73;;;8.68;;
9559;SDS011;4818;50.860;4.648;2022-10-13T14:08:46;20.90;;;11.55;;
9559;SDS011;4818;50.860;4.648;2022-10-13T14:11:12;18.00;;;10.98;;
9559;SDS011;4818;50.860;4.648;2022-10-13T14:13:44;16.17;;;9.98;;
9559;SDS011;4818;50.860;4.648;2022-10-13T14:16:22;17.88;;;11.23;;
9559;SDS011;4818;50.860;4.648;2022-10-13T14:18:49;19.63;;;10.35;;
9559;SDS011;4818;50.860;4.648;2022-10-13T14:21:15;17.67;;;10.57;;
9559;SDS011;4818;50.860;4.648;2022-10-13T14:23:41;15.48;;;9.93;;
9559;SDS011;4818;50.860;4.648;2022-10-13T14:26:11;14.45;;;10.70;;
9559;SDS011;4818;50.860;4.648;2022-10-13T14:28:41;16.13;;;10.77;;
9559;SDS011;4818;50.860;4.648;2022-10-13T14:31:07;22.20;;;12.40;;
9559;SDS011;4818;50.860;4.648;2022-10-13T14:33:34;22.45;;;11.05;;
9559;SDS011;4818;50.860;4.648;2022-10-13T14:36:01;18.23;;;11.55;;
9559;SDS011;4818;50.860;4.648;2022-10-13T14:38:31;18.23;;;11.85;;
9559;SDS011;4818;50.860;4.648;2022-10-13T14:41:01;20.23;;;11.68;;
9559;SDS011;4818;50.860;4.648;2022-10-13T14:43:28;24.73;;;11.77;;
9559;SDS011;4818;50.860;4.648;2022-10-13T14:45:54;21.58;;;10.85;;
9559;SDS011;4818;50.860;4.648;2022-10-13T14:48:20;22.40;;;11.65;;
9559;SDS011;4818;50.860;4.648;2022-10-13T14:50:47;23.63;;;12.48;;
9559;SDS011;4818;50.860;4.648;2022-10-13T14:53:13;17.33;;;11.18;;
9559;SDS011;4818;50.860;4.648;2022-10-13T14:55:43;18.63;;;10.43;;
9559;SDS011;4818;50.860;4.648;2022-10-13T14:58:10;16.40;;;10.07;;
9559;SDS011;4818;50.860;4.648;2022-10-13T15:00:36;22.70;;;11.38;;
9559;SDS011;4818;50.860;4.648;2022-10-13T15:03:03;18.95;;;9.45;;
9559;SDS011;4818;50.860;4.648;2022-10-13T15:05:29;16.00;;;10.38;;
9559;SDS011;4818;50.860;4.648;2022-10-13T15:07:56;20.10;;;10.82;;
9559;SDS011;4818;50.860;4.648;2022-10-13T15:10:22;21.00;;;10.70;;
9559;SDS011;4818;50.860;4.648;2022-10-13T15:12:49;20.00;;;10.38;;
9559;SDS011;4818;50.860;4.648;2022-10-13T15:15:16;17.10;;;9.85;;
9559;SDS011;4818;50.860;4.648;2022-10-13T15:17:46;13.98;;;8.63;;
9559;SDS011;4818;50.860;4.648;2022-10-13T15:20:12;14.48;;;8.93;;
9559;SDS011;4818;50.860;4.648;2022-10-13T15:22:38;19.63;;;8.43;;
9559;SDS011;4818;50.860;4.648;2022-10-13T15:25:04;15.07;;;7.75;;
9559;SDS011;4818;50.860;4.648;2022-10-13T15:27:34;11.25;;;4.10;;
9559;SDS011;4818;50.860;4.648;2022-10-13T15:30:00;5.88;;;3.67;;
9559;SDS011;4818;50.860;4.648;2022-10-13T15:32:26;5.20;;;2.83;;
9559;SDS011;4818;50.860;4.648;2022-10-13T15:34:52;6.97;;;2.88;;
9559;SDS011;4818;50.860;4.648;2022-10-13T15:37:18;5.20;;;2.05;;
9559;SDS011;4818;50.860;4.648;2022-10-13T15:39:45;4.13;;;2.60;;
9559;SDS011;4818;50.860;4.648;2022-10-13T15:42:12;7.50;;;2.22;;
9559;SDS011;4818;50.860;4.648;2022-10-13T15:44:38;5.57;;;2.53;;
9559;SDS011;4818;50.860;4.648;2022-10-13T15:47:06;11.32;;;2.58;;
9559;SDS011;4818;50.860;4.648;2022-10-13T15:49:33;5.97;;;2.45;;
9559;SDS011;4818;50.860;4.648;2022-10-13T15:52:01;6.97;;;2.53;;
9559;SDS011;4818;50.860;4.648;2022-10-13T15:54:28;8.23;;;2.67;;
9559;SDS011;4818;50.860;4.648;2022-10-13T15:56:54;9.90;;;2.35;;
9559;SDS011;4818;50.860;4.648;2022-10-13T15:59:23;5.32;;;2.17;;
9559;SDS011;4818;50.860;4.648;2022-10-13T16:01:50;5.45;;;2.53;;
9559;SDS011;4818;50.860;4.648;2022-10-13T16:04:16;6.32;;;2.50;;
9559;SDS011;4818;50.860;4.648;2022-10-13T16:06:42;8.88;;;2.60;;
9559;SDS011;4818;50.860;4.648;2022-10-13T16:09:12;7.20;;;2.55;;
9559;SDS011;4818;50.860;4.648;2022-10-13T16:11:46;6.38;;;2.53;;
9559;SDS011;4818;50.860;4.648;2022-10-13T16:16:42;7.18;;;3.35;;
9559;SDS011;4818;50.860;4.648;2022-10-13T16:19:08;9.27;;;3.95;;
9559;SDS011;4818;50.860;4.648;2022-10-13T16:21:35;6.47;;;2.33;;
9559;SDS011;4818;50.860;4.648;2022-10-13T16:24:01;7.97;;;3.17;;
9559;SDS011;4818;50.860;4.648;2022-10-13T16:26:28;9.75;;;3.35;;
9559;SDS011;4818;50.860;4.648;2022-10-13T16:28:55;8.25;;;3.10;;
9559;SDS011;4818;50.860;4.648;2022-10-13T16:31:22;5.47;;;2.25;;
9559;SDS011;4818;50.860;4.648;2022-10-13T16:33:48;6.43;;;2.60;;
9559;SDS011;4818;50.860;4.648;2022-10-13T16:36:15;6.13;;;2.88;;
9559;SDS011;4818;50.860;4.648;2022-10-13T16:38:42;10.25;;;3.45;;
9559;SDS011;4818;50.860;4.648;2022-10-13T16:41:11;8.13;;;3.13;;
9559;SDS011;4818;50.860;4.648;2022-10-13T16:43:38;5.87;;;2.67;;
9559;SDS011;4818;50.860;4.648;2022-10-13T16:46:04;8.25;;;4.18;;
9559;SDS011;4818;50.860;4.648;2022-10-13T16:48:32;5.50;;;3.17;;
9559;SDS011;4818;50.860;4.648;2022-10-13T16:51:02;6.93;;;3.63;;
9559;SDS011;4818;50.860;4.648;2022-10-13T16:53:28;4.13;;;2.83;;
9559;SDS011;4818;50.860;4.648;2022-10-13T16:55:55;5.28;;;3.65;;
9559;SDS011;4818;50.860;4.648;2022-10-13T16:58:21;8.40;;;3.45;;
9559;SDS011;4818;50.860;4.648;2022-10-13T17:00:47;6.47;;;3.00;;